Terminal Aerodrome Forecast
Issued by NWS

Home | Current Version | Previous Version | Graphics & Text | Print | Product List | Glossary On
Versions: 1 2 3 4 5 6 7 8 9 10 11 12
653
FTUS43 KBIS 180526
TAFDIK
TAF
KDIK 180526Z 1806/1906 25015KT P6SM SKC WS020/29035KT
     FM182100 22012KT P6SM FEW250=

USA.gov is the U.S. government's official web portal to all federal, state and local government web resources and services.